Time,TemperatureF,DewpointF,PressureIn,WindDirection,WindDirectionDegrees,WindSpeedMPH,WindSpeedGustMPH,Humidity,HourlyPrecipIn,Conditions,Clouds,dailyrainin,SolarRadiationWatts/m^2,SoftwareType,DateUTC
2013-01-24 00:30:00,33.0,31.0,-100.00,SSE,149,7.0,19.0,91,-99.99,,,-99.99,0.000000,,2013-01-24 08:30:00,
2013-01-24 01:22:00,33.0,31.0,-100.00,SSE,149,7.0,19.0,91,-99.99,,,-99.99,0.000000,,2013-01-24 09:22:00,
2013-01-24 01:30:00,33.0,31.0,-100.00,SSE,154,9.0,21.0,91,-99.99,,,-99.99,0.000000,,2013-01-24 09:30:00,
2013-01-24 02:22:00,33.0,31.0,-100.00,SSE,154,9.0,21.0,91,-99.99,,,-99.99,0.000000,,2013-01-24 10:22:00,
2013-01-24 02:30:00,34.0,31.0,-100.00,SSE,154,5.0,11.0,88,-99.99,,,-99.99,0.000000,,2013-01-24 10:30:00,
2013-01-24 03:22:00,34.0,31.0,-100.00,SSE,154,5.0,11.0,88,-99.99,,,-99.99,0.000000,,2013-01-24 11:22:00,
2013-01-24 03:30:00,35.0,32.0,-100.00,SSE,158,8.0,18.0,88,-99.99,,,-99.99,0.000000,,2013-01-24 11:30:00,
2013-01-24 04:22:00,35.0,32.0,-100.00,SSE,158,8.0,18.0,88,-99.99,,,-99.99,0.000000,,2013-01-24 12:22:00,
2013-01-24 04:30:00,35.0,32.0,-100.00,SSE,167,6.0,12.0,90,-99.99,,,-99.99,0.000000,,2013-01-24 12:30:00,
2013-01-24 05:22:00,35.0,32.0,-100.00,SSE,167,6.0,12.0,90,-99.99,,,-99.99,0.000000,,2013-01-24 13:22:00,
2013-01-24 05:30:00,35.0,33.0,-100.00,SSW,192,5.0,12.0,91,-99.99,,,-99.99,0.000000,,2013-01-24 13:30:00,
2013-01-24 06:22:00,35.0,33.0,-100.00,SSW,192,5.0,12.0,91,-99.99,,,-99.99,0.000000,,2013-01-24 14:22:00,
2013-01-24 06:30:00,34.0,33.0,-100.00,South,174,2.0,5.0,95,-99.99,,,-99.99,0.000000,,2013-01-24 14:30:00,
2013-01-24 07:22:00,34.0,33.0,-100.00,South,174,2.0,5.0,95,-99.99,,,-99.99,0.000000,,2013-01-24 15:22:00,
2013-01-24 08:30:00,34.0,33.0,-100.00,SE,132,4.0,6.0,96,-99.99,,,-99.99,21.000000,,2013-01-24 16:30:00,
2013-01-24 09:30:00,36.0,33.0,-100.00,SE,144,4.0,7.0,89,-99.99,,,-99.99,35.000000,,2013-01-24 17:30:00,
2013-01-24 10:22:00,36.0,33.0,-100.00,SE,144,4.0,7.0,89,-99.99,,,-99.99,35.000000,,2013-01-24 18:22:00,
2013-01-24 10:30:00,38.0,33.0,-100.00,SE,145,3.0,6.0,80,-99.99,,,-99.99,117.000000,,2013-01-24 18:30:00,
2013-01-24 11:22:00,38.0,33.0,-100.00,SE,145,3.0,6.0,80,-99.99,,,-99.99,117.000000,,2013-01-24 19:22:00,
2013-01-24 11:30:00,38.0,34.0,-100.00,SW,214,1.0,2.0,86,-99.99,,,-99.99,74.000000,,2013-01-24 19:30:00,
2013-01-24 12:22:00,38.0,34.0,-100.00,SW,214,1.0,2.0,86,-99.99,,,-99.99,74.000000,,2013-01-24 20:22:00,
2013-01-24 12:30:00,37.0,35.0,-100.00,South,189,1.0,3.0,92,-99.99,,,-99.99,86.000000,,2013-01-24 20:30:00,
2013-01-24 13:22:00,37.0,35.0,-100.00,South,189,1.0,3.0,92,-99.99,,,-99.99,86.000000,,2013-01-24 21:22:00,
2013-01-24 13:30:00,38.0,35.0,-100.00,South,176,2.0,3.0,88,-99.99,,,-99.99,78.000000,,2013-01-24 21:30:00,
2013-01-24 14:22:00,38.0,35.0,-100.00,South,176,2.0,3.0,88,-99.99,,,-99.99,78.000000,,2013-01-24 22:22:00,
2013-01-24 14:30:00,38.0,35.0,-100.00,North,-999,0.0,0.0,90,-99.99,,,-99.99,61.000000,,2013-01-24 22:30:00,
2013-01-24 15:22:00,38.0,35.0,-100.00,North,-999,0.0,0.0,90,-99.99,,,-99.99,61.000000,,2013-01-24 23:22:00,
2013-01-24 15:30:00,36.0,34.0,-100.00,East,94,2.0,3.0,93,-99.99,,,-99.99,55.000000,,2013-01-24 23:30:00,
2013-01-24 16:22:00,36.0,34.0,-100.00,East,94,2.0,3.0,93,-99.99,,,-99.99,55.000000,,2013-01-25 00:22:00,
2013-01-24 16:30:00,37.0,35.0,-100.00,SE,128,4.0,9.0,92,-99.99,,,-99.99,12.000000,,2013-01-25 00:30:00,
2013-01-24 17:21:00,37.0,35.0,-100.00,SE,128,4.0,9.0,92,-99.99,,,-99.99,12.000000,,2013-01-25 01:21:00,
2013-01-24 17:30:00,36.0,35.0,-100.00,SE,138,2.0,4.0,94,-99.99,,,-99.99,0.000000,,2013-01-25 01:30:00,
2013-01-24 18:22:00,36.0,35.0,-100.00,SE,138,2.0,4.0,94,-99.99,,,-99.99,0.000000,,2013-01-25 02:22:00,
2013-01-24 18:30:00,36.0,35.0,-100.00,ESE,121,3.0,5.0,96,-99.99,,,-99.99,0.000000,,2013-01-25 02:30:00,
2013-01-24 19:22:00,36.0,35.0,-100.00,ESE,121,3.0,5.0,96,-99.99,,,-99.99,0.000000,,2013-01-25 03:22:00,
2013-01-24 19:30:00,34.0,33.0,-100.00,ESE,119,4.0,7.0,96,-99.99,,,-99.99,0.000000,,2013-01-25 03:30:00,
2013-01-24 20:22:00,34.0,33.0,-100.00,ESE,119,4.0,7.0,96,-99.99,,,-99.99,0.000000,,2013-01-25 04:22:00,
2013-01-24 20:30:00,35.0,34.0,-100.00,SSE,152,4.0,10.0,95,-99.99,,,-99.99,0.000000,,2013-01-25 04:30:00,
2013-01-24 21:22:00,35.0,34.0,-100.00,SSE,152,4.0,10.0,95,-99.99,,,-99.99,0.000000,,2013-01-25 05:22:00,
2013-01-24 21:30:00,35.0,34.0,-100.00,SSE,149,3.0,5.0,95,-99.99,,,-99.99,0.000000,,2013-01-25 05:30:00,
2013-01-24 22:21:00,35.0,34.0,-100.00,SSE,149,3.0,5.0,95,-99.99,,,-99.99,0.000000,,2013-01-25 06:21:00,
2013-01-24 22:30:00,35.0,34.0,-100.00,SSE,158,4.0,9.0,96,-99.99,,,-99.99,0.000000,,2013-01-25 06:30:00,
2013-01-24 23:21:00,35.0,34.0,-100.00,SSE,158,4.0,9.0,96,-99.99,,,-99.99,0.000000,,2013-01-25 07:21:00,
2013-01-24 23:30:00,35.0,35.0,-100.00,SSE,162,5.0,8.0,97,-99.99,,,-99.99,0.000000,,2013-01-25 07:30:00,